createdAt,value
2023-02-09T00:02:18.405Z,10.87
2023-02-09T00:04:44.735Z,12.40
2023-02-09T00:07:11.044Z,11.20
2023-02-09T00:09:37.441Z,11.70
2023-02-09T00:12:22.501Z,10.37
2023-02-09T00:14:48.899Z,12.43
2023-02-09T00:17:15.260Z,14.77
2023-02-09T00:19:41.616Z,8.93
2023-02-09T00:22:07.924Z,11.37
2023-02-09T00:24:34.240Z,11.13
2023-02-09T00:27:00.531Z,12.17
2023-02-09T00:29:27.575Z,9.63
2023-02-09T00:31:54.037Z,9.10
2023-02-09T00:34:20.433Z,9.53
2023-02-09T00:36:46.742Z,7.07
2023-02-09T00:39:13.449Z,9.53
2023-02-09T00:41:58.290Z,13.70
2023-02-09T00:44:24.628Z,11.27
2023-02-09T00:46:52.234Z,10.60
2023-02-09T00:49:18.580Z,10.47
2023-02-09T00:51:44.976Z,12.07
2023-02-09T00:54:11.739Z,12.13
2023-02-09T00:56:38.140Z,14.90
2023-02-09T00:59:04.423Z,12.77
2023-02-09T01:01:30.996Z,9.43
2023-02-09T01:03:57.315Z,11.67
2023-02-09T01:06:23.652Z,10.83
2023-02-09T01:08:50.899Z,13.73
2023-02-09T01:11:17.260Z,8.23
2023-02-09T01:13:44.336Z,11.00
2023-02-09T01:16:12.922Z,11.83
2023-02-09T01:18:39.475Z,10.83
2023-02-09T01:21:13.121Z,10.80
2023-02-09T01:23:39.532Z,13.10
2023-02-09T01:26:07.352Z,10.53
2023-02-09T01:28:33.791Z,11.00
2023-02-09T01:31:00.244Z,10.23
2023-02-09T01:33:26.617Z,12.30
2023-02-09T01:36:13.186Z,12.10
2023-02-09T01:38:39.496Z,11.63
2023-02-09T01:41:05.804Z,9.10
2023-02-09T01:43:51.040Z,11.47
2023-02-09T01:46:17.537Z,13.87
2023-02-09T01:48:44.093Z,12.10
2023-02-09T01:51:10.965Z,11.40
2023-02-09T01:53:37.339Z,14.20
2023-02-09T01:56:06.253Z,12.83
2023-02-09T01:58:33.044Z,12.17
2023-02-09T02:01:00.276Z,10.33
2023-02-09T02:03:28.128Z,10.77
2023-02-09T02:06:05.015Z,14.10
2023-02-09T02:08:33.983Z,10.87
2023-02-09T02:11:00.331Z,12.43
2023-02-09T02:13:26.653Z,9.70
2023-02-09T02:15:52.969Z,9.83
2023-02-09T02:18:30.878Z,12.23
2023-02-09T02:21:14.794Z,13.50
2023-02-09T02:23:53.853Z,9.03
2023-02-09T02:26:23.257Z,10.30
2023-02-09T02:29:00.515Z,9.90
2023-02-09T02:31:30.021Z,9.23
2023-02-09T02:33:56.476Z,11.57
2023-02-09T02:36:38.692Z,12.00
2023-02-09T02:39:26.556Z,9.27
2023-02-09T02:42:14.542Z,11.23
2023-02-09T02:44:42.425Z,11.40
2023-02-09T02:47:11.822Z,10.57
2023-02-09T02:49:38.116Z,9.20
2023-02-09T02:52:06.748Z,10.53
2023-02-09T02:54:35.165Z,10.27
2023-02-09T02:57:07.512Z,10.00
2023-02-09T02:59:35.318Z,11.57
2023-02-09T03:02:08.399Z,9.23
2023-02-09T03:04:35.881Z,9.93
2023-02-09T03:07:05.050Z,11.23
2023-02-09T03:09:31.626Z,9.83
2023-02-09T03:12:00.511Z,11.63
2023-02-09T03:14:26.835Z,8.13
2023-02-09T03:17:17.318Z,8.43
2023-02-09T03:19:47.661Z,11.23
2023-02-09T03:22:18.534Z,9.13
2023-02-09T03:24:52.997Z,13.80
2023-02-09T03:27:21.830Z,8.87
2023-02-09T03:29:50.324Z,9.13
2023-02-09T03:32:17.656Z,13.37
2023-02-09T03:34:44.730Z,7.97
2023-02-09T03:37:11.303Z,10.83
2023-02-09T03:39:37.739Z,10.10
2023-02-09T03:42:04.117Z,10.50
2023-02-09T03:44:30.474Z,10.80
2023-02-09T03:47:01.310Z,13.70
2023-02-09T03:49:29.037Z,10.67
2023-02-09T03:51:55.355Z,6.67
2023-02-09T03:54:21.750Z,9.40
2023-02-09T03:56:48.319Z,14.00
2023-02-09T03:59:14.709Z,9.97
2023-02-09T04:01:41.009Z,11.10
2023-02-09T04:04:07.408Z,11.63
2023-02-09T04:06:34.870Z,11.57
2023-02-09T04:09:01.803Z,10.50
2023-02-09T04:11:28.192Z,11.20
2023-02-09T04:13:55.110Z,13.73
2023-02-09T04:16:22.576Z,9.70
2023-02-09T04:18:49.086Z,10.27
2023-02-09T04:21:15.438Z,9.47
2023-02-09T04:23:41.773Z,12.57
2023-02-09T04:26:08.149Z,16.07
2023-02-09T04:28:34.471Z,12.27
2023-02-09T04:31:00.856Z,9.07
2023-02-09T04:33:27.229Z,8.53
2023-02-09T04:35:53.712Z,11.60
2023-02-09T04:38:20.620Z,12.57
2023-02-09T04:40:51.036Z,15.83
2023-02-09T04:43:17.796Z,10.90
2023-02-09T04:45:44.180Z,12.33
2023-02-09T04:48:11.560Z,11.67
2023-02-09T04:50:38.143Z,11.90
2023-02-09T04:53:04.615Z,12.33
2023-02-09T04:55:30.995Z,9.77
2023-02-09T04:58:17.194Z,9.43
2023-02-09T05:00:43.872Z,11.17
2023-02-09T05:03:10.406Z,12.03
2023-02-09T05:05:38.814Z,11.03
2023-02-09T05:08:05.264Z,11.53
2023-02-09T05:10:31.579Z,11.50
2023-02-09T05:12:57.848Z,8.53
2023-02-09T05:15:24.188Z,17.40
2023-02-09T05:17:50.505Z,13.57
2023-02-09T05:20:16.982Z,11.33
2023-02-09T05:22:43.385Z,10.87
2023-02-09T05:25:09.705Z,15.93
2023-02-09T05:27:36.069Z,9.70
2023-02-09T05:30:02.380Z,10.77
2023-02-09T05:32:28.756Z,11.10
2023-02-09T05:34:55.135Z,13.30
2023-02-09T05:37:21.515Z,10.33
2023-02-09T05:39:47.975Z,12.27
2023-02-09T05:42:17.145Z,10.87
2023-02-09T05:44:44.618Z,11.97
2023-02-09T05:47:11.319Z,10.50
2023-02-09T05:49:37.621Z,11.77
2023-02-09T05:52:04.334Z,12.90
2023-02-09T05:54:30.710Z,11.43
2023-02-09T05:56:57.062Z,9.80
2023-02-09T05:59:23.425Z,12.63
2023-02-09T06:01:50.193Z,13.17
2023-02-09T06:04:16.528Z,9.53
2023-02-09T06:06:42.848Z,13.60
2023-02-09T06:09:09.235Z,8.40
2023-02-09T06:11:35.749Z,12.83
2023-02-09T06:14:02.212Z,9.90
2023-02-09T06:16:28.523Z,14.57
2023-02-09T06:18:55.898Z,11.53
2023-02-09T06:21:22.489Z,10.63
2023-02-09T06:23:48.852Z,12.60
2023-02-09T06:26:16.047Z,11.20
2023-02-09T06:28:42.878Z,9.10
2023-02-09T06:31:09.477Z,12.70
2023-02-09T06:33:36.933Z,11.83
2023-02-09T06:36:03.992Z,8.10
2023-02-09T06:38:31.189Z,10.43
2023-02-09T06:40:57.556Z,14.90
2023-02-09T06:43:23.969Z,11.57
2023-02-09T06:45:50.397Z,8.57
2023-02-09T06:48:16.690Z,11.07
2023-02-09T06:50:43.201Z,16.00
2023-02-09T06:53:09.722Z,9.37
2023-02-09T06:55:36.075Z,10.77
2023-02-09T06:58:02.393Z,10.20
2023-02-09T07:00:28.938Z,9.73
2023-02-09T07:02:55.343Z,12.33
2023-02-09T07:05:21.718Z,10.30
2023-02-09T07:07:48.078Z,8.63
2023-02-09T07:10:15.587Z,11.90
2023-02-09T07:12:43.428Z,10.13
2023-02-09T07:15:10.426Z,10.07
2023-02-09T07:17:36.791Z,12.20
2023-02-09T07:20:03.878Z,8.83
2023-02-09T07:22:30.942Z,13.57
2023-02-09T07:24:57.336Z,10.83
2023-02-09T07:27:23.696Z,10.60
2023-02-09T07:29:50.092Z,11.87
2023-02-09T07:32:16.488Z,13.30
2023-02-09T07:34:43.157Z,13.90
2023-02-09T07:37:09.461Z,12.13
2023-02-09T07:39:36.207Z,14.07
2023-02-09T07:42:02.643Z,19.40
2023-02-09T07:44:29.100Z,7.30
2023-02-09T07:46:55.476Z,11.07
2023-02-09T07:49:21.789Z,9.23
2023-02-09T07:51:48.180Z,13.73
2023-02-09T07:54:14.849Z,13.70
2023-02-09T07:56:41.626Z,9.33
2023-02-09T07:59:07.978Z,10.47
2023-02-09T08:01:34.482Z,9.37
2023-02-09T08:04:00.781Z,14.40
2023-02-09T08:06:41.617Z,13.13
2023-02-09T08:09:09.510Z,14.30
2023-02-09T08:11:40.364Z,11.97
2023-02-09T08:14:11.306Z,9.50
2023-02-09T08:16:37.705Z,14.77
2023-02-09T08:19:06.615Z,15.73
2023-02-09T08:21:36.314Z,13.07
2023-02-09T08:24:03.144Z,10.20
2023-02-09T08:26:29.547Z,12.00
2023-02-09T08:28:56.343Z,15.93
2023-02-09T08:31:24.925Z,15.40
2023-02-09T08:33:51.387Z,12.83
2023-02-09T08:36:18.647Z,15.57
2023-02-09T08:38:45.400Z,13.17
2023-02-09T08:41:13.242Z,12.73
2023-02-09T08:43:39.935Z,9.87
2023-02-09T08:46:08.381Z,11.50
2023-02-09T08:48:35.942Z,12.67
2023-02-09T08:51:02.605Z,10.53
2023-02-09T08:53:28.917Z,12.03
2023-02-09T08:55:55.250Z,13.87
2023-02-09T08:58:21.603Z,14.90
2023-02-09T09:00:49.036Z,10.43
2023-02-09T09:03:15.516Z,12.63
2023-02-09T09:05:42.043Z,11.60
2023-02-09T09:08:10.629Z,10.83
2023-02-09T09:10:36.970Z,10.57
2023-02-09T09:13:03.287Z,13.83
2023-02-09T09:15:29.568Z,12.00
2023-02-09T09:17:55.879Z,10.47
2023-02-09T09:20:22.694Z,13.03
2023-02-09T09:22:48.965Z,14.27
2023-02-09T09:25:15.290Z,12.47
2023-02-09T09:27:41.576Z,15.03
2023-02-09T09:30:08.199Z,13.40
2023-02-09T09:32:34.679Z,11.03
2023-02-09T09:35:02.230Z,11.07
2023-02-09T09:37:28.559Z,12.70
2023-02-09T09:39:54.961Z,12.20
2023-02-09T09:42:30.493Z,13.57
2023-02-09T09:44:57.268Z,14.63
2023-02-09T09:47:33.175Z,13.67
2023-02-09T09:49:59.565Z,17.10
2023-02-09T09:52:30.709Z,13.40
2023-02-09T09:54:57.913Z,15.77
2023-02-09T09:57:25.872Z,13.83
2023-02-09T09:59:52.421Z,17.70
2023-02-09T10:02:23.457Z,15.70
2023-02-09T10:04:50.103Z,12.30
2023-02-09T10:07:20.089Z,16.23
2023-02-09T10:09:56.699Z,14.47
2023-02-09T10:12:29.143Z,14.00
2023-02-09T10:14:55.551Z,16.50
2023-02-09T10:17:21.949Z,14.40
2023-02-09T10:20:05.121Z,16.37
2023-02-09T10:22:31.523Z,17.43
2023-02-09T10:24:59.345Z,16.93
2023-02-09T10:27:25.703Z,16.47
2023-02-09T10:29:52.236Z,15.77
2023-02-09T10:32:47.959Z,16.60
2023-02-09T10:35:27.918Z,13.93
2023-02-09T10:38:04.021Z,16.87
2023-02-09T10:40:38.602Z,15.87
2023-02-09T10:43:18.806Z,16.90
2023-02-09T10:45:45.776Z,13.40
2023-02-09T10:48:12.727Z,16.20
2023-02-09T10:50:47.942Z,19.57
2023-02-09T10:53:18.527Z,20.90
2023-02-09T10:55:45.275Z,18.20
2023-02-09T10:58:17.849Z,16.73
2023-02-09T11:01:03.191Z,18.93
2023-02-09T11:03:30.279Z,18.43
2023-02-09T11:06:06.952Z,17.90
2023-02-09T11:08:45.611Z,20.90
2023-02-09T11:11:30.057Z,18.57
2023-02-09T11:13:57.806Z,18.60
2023-02-09T11:16:27.421Z,17.27
2023-02-09T11:19:14.055Z,18.73
2023-02-09T11:21:49.690Z,19.30
2023-02-09T11:24:20.553Z,25.00
2023-02-09T11:27:10.872Z,16.13
2023-02-09T11:29:40.791Z,17.57
2023-02-09T11:32:15.979Z,17.53
2023-02-09T11:34:42.264Z,18.97
2023-02-09T11:37:27.898Z,23.87
2023-02-09T11:39:54.213Z,20.23
2023-02-09T11:42:42.715Z,19.43
2023-02-09T11:45:16.264Z,23.93
2023-02-09T11:47:42.932Z,20.57
2023-02-09T11:50:14.951Z,19.80
2023-02-09T11:52:47.210Z,23.17
2023-02-09T11:55:26.108Z,22.83
2023-02-09T11:57:54.937Z,28.30
2023-02-09T12:00:26.460Z,19.13
2023-02-09T12:03:04.038Z,21.50
2023-02-09T12:05:30.440Z,23.40
2023-02-09T12:08:14.444Z,25.73
2023-02-09T12:10:47.027Z,20.63
2023-02-09T12:13:20.483Z,25.70
2023-02-09T12:15:50.581Z,23.57
2023-02-09T12:18:27.279Z,24.83
2023-02-09T12:20:57.724Z,19.63
2023-02-09T12:23:24.035Z,26.30
2023-02-09T12:25:51.442Z,21.60
2023-02-09T12:28:37.282Z,22.87
2023-02-09T12:31:06.135Z,21.17
2023-02-09T12:33:39.395Z,21.60
2023-02-09T12:36:16.104Z,30.80
2023-02-09T12:38:49.449Z,22.57
2023-02-09T12:41:21.677Z,23.60
2023-02-09T12:43:49.301Z,21.00
2023-02-09T12:46:20.326Z,22.87
2023-02-09T12:48:50.786Z,26.70
2023-02-09T12:51:35.564Z,26.03
2023-02-09T12:54:01.890Z,27.13
2023-02-09T12:56:29.558Z,25.83
2023-02-09T12:59:05.924Z,23.63
2023-02-09T13:01:50.954Z,19.53
2023-02-09T13:04:17.556Z,24.13
2023-02-09T13:06:46.384Z,25.87
2023-02-09T13:09:34.563Z,24.47
2023-02-09T13:12:13.926Z,25.63
2023-02-09T13:14:42.845Z,26.53
2023-02-09T13:17:09.112Z,26.87
2023-02-09T13:19:48.969Z,22.47
2023-02-09T13:22:35.542Z,22.27
2023-02-09T13:25:10.607Z,28.90
2023-02-09T13:27:44.068Z,28.13
2023-02-09T13:30:29.994Z,25.33
2023-02-09T13:33:16.598Z,22.50
2023-02-09T13:35:48.872Z,31.93
2023-02-09T13:38:16.759Z,27.07
2023-02-09T13:40:47.896Z,25.37
2023-02-09T13:43:44.008Z,26.10
2023-02-09T13:46:22.758Z,27.97
2023-02-09T13:48:49.247Z,26.70
2023-02-09T13:51:16.851Z,23.73
2023-02-09T13:53:54.973Z,25.27
2023-02-09T13:56:21.477Z,24.40
2023-02-09T13:58:47.909Z,22.57
2023-02-09T14:01:16.449Z,29.53
2023-02-09T14:03:57.431Z,22.27
2023-02-09T14:06:32.214Z,23.37
2023-02-09T14:08:59.621Z,27.10
2023-02-09T14:11:42.987Z,32.10
2023-02-09T14:14:27.532Z,22.13
2023-02-09T14:17:22.956Z,22.73
2023-02-09T14:19:50.737Z,21.13
2023-02-09T14:22:26.993Z,22.50
2023-02-09T14:24:53.393Z,24.37
2023-02-09T14:27:23.886Z,22.97
2023-02-09T14:29:50.466Z,23.00
2023-02-09T14:32:32.002Z,23.00
2023-02-09T14:34:59.468Z,23.90
2023-02-09T14:37:29.257Z,25.87
2023-02-09T14:39:57.071Z,22.70
2023-02-09T14:42:23.812Z,28.03
2023-02-09T14:44:54.318Z,24.73
2023-02-09T14:47:31.252Z,27.73
2023-02-09T14:49:58.561Z,23.90
2023-02-09T14:52:28.837Z,31.53
2023-02-09T14:54:56.811Z,25.63
2023-02-09T14:57:29.513Z,27.10
2023-02-09T14:59:59.072Z,29.07
2023-02-09T15:02:27.247Z,25.27
2023-02-09T15:04:54.239Z,27.30
2023-02-09T15:07:23.652Z,29.67
2023-02-09T15:09:50.315Z,27.80
2023-02-09T15:12:24.416Z,26.20
2023-02-09T15:14:51.314Z,24.13
2023-02-09T15:17:18.850Z,25.63
2023-02-09T15:19:45.746Z,27.03
2023-02-09T15:22:14.966Z,35.60
2023-02-09T15:24:44.991Z,28.87
2023-02-09T15:27:14.276Z,28.73
2023-02-09T15:29:40.649Z,29.30
2023-02-09T15:32:14.053Z,24.67
2023-02-09T15:34:40.548Z,20.63
2023-02-09T15:37:08.947Z,23.23
2023-02-09T15:39:35.257Z,25.00
2023-02-09T15:42:20.402Z,30.47
2023-02-09T15:45:06.710Z,26.33
2023-02-09T15:47:53.528Z,31.80
2023-02-09T15:50:19.883Z,25.83
2023-02-09T15:52:46.404Z,26.03
2023-02-09T15:55:16.665Z,26.93
2023-02-09T15:57:43.007Z,25.27
2023-02-09T16:00:15.145Z,26.33
2023-02-09T16:02:41.495Z,22.97
2023-02-09T16:05:08.914Z,25.53
2023-02-09T16:07:37.275Z,33.73
2023-02-09T16:10:04.497Z,27.10
2023-02-09T16:12:30.819Z,24.93
2023-02-09T16:14:57.219Z,30.20
2023-02-09T16:17:23.888Z,26.50
2023-02-09T16:19:50.201Z,26.37
2023-02-09T16:22:16.996Z,24.60
2023-02-09T16:24:47.098Z,26.87
2023-02-09T16:27:17.302Z,25.30
2023-02-09T16:29:43.627Z,22.97
2023-02-09T16:32:15.016Z,25.07
2023-02-09T16:34:41.389Z,24.90
2023-02-09T16:37:07.723Z,25.93
2023-02-09T16:39:35.052Z,24.77
2023-02-09T16:42:01.449Z,22.40
2023-02-09T16:44:33.524Z,24.13
2023-02-09T16:47:00.570Z,20.33
2023-02-09T16:49:26.936Z,27.10
2023-02-09T16:51:55.425Z,22.23
2023-02-09T16:54:22.044Z,20.40
2023-02-09T16:56:54.113Z,21.40
2023-02-09T16:59:21.089Z,27.67
2023-02-09T17:01:48.742Z,26.27
2023-02-09T17:04:15.608Z,24.27
2023-02-09T17:06:41.891Z,27.30
2023-02-09T17:09:15.272Z,26.23
2023-02-09T17:11:41.735Z,24.03
2023-02-09T17:14:08.169Z,21.50
2023-02-09T17:16:35.854Z,16.67
2023-02-09T17:19:03.169Z,21.97
2023-02-09T17:21:34.879Z,19.03
2023-02-09T17:24:01.452Z,25.67
2023-02-09T17:26:28.898Z,23.67
2023-02-09T17:28:55.374Z,23.30
2023-02-09T17:31:26.540Z,22.60
2023-02-09T17:33:54.460Z,14.50
2023-02-09T17:36:29.354Z,18.87
2023-02-09T17:38:56.930Z,17.37
2023-02-09T17:41:34.309Z,21.57
2023-02-09T17:44:29.007Z,19.50
2023-02-09T17:46:58.240Z,19.93
2023-02-09T17:49:24.601Z,19.53
2023-02-09T17:51:52.883Z,19.63
2023-02-09T17:54:20.323Z,18.40
2023-02-09T17:56:46.709Z,22.63
2023-02-09T17:59:13.638Z,17.57
2023-02-09T18:01:45.139Z,21.17
2023-02-09T18:04:22.192Z,19.63
2023-02-09T18:06:50.949Z,21.20
2023-02-09T18:09:17.298Z,17.80
2023-02-09T18:11:52.600Z,20.10
2023-02-09T18:14:19.983Z,19.27
2023-02-09T18:16:47.684Z,11.93
2023-02-09T18:19:15.863Z,21.33
2023-02-09T18:21:47.739Z,13.67
2023-02-09T18:24:14.075Z,17.20
2023-02-09T18:26:40.391Z,16.43
2023-02-09T18:29:06.899Z,19.43
2023-02-09T18:31:34.074Z,21.50
2023-02-09T18:34:00.762Z,15.23
2023-02-09T18:36:27.071Z,21.50
2023-02-09T18:38:54.827Z,12.60
2023-02-09T18:41:21.240Z,18.07
2023-02-09T18:43:47.720Z,13.83
2023-02-09T18:46:14.143Z,16.83
2023-02-09T18:48:40.521Z,13.70
2023-02-09T18:51:07.439Z,10.37
2023-02-09T18:53:33.817Z,13.40
2023-02-09T18:56:01.434Z,16.00
2023-02-09T18:58:27.809Z,9.67
2023-02-09T19:00:55.176Z,15.80
2023-02-09T19:03:21.593Z,11.90
2023-02-09T19:05:48.289Z,16.03
2023-02-09T19:08:15.197Z,15.57
2023-02-09T19:10:42.606Z,17.73
2023-02-09T19:13:08.989Z,14.20
2023-02-09T19:15:35.584Z,13.60
2023-02-09T19:18:02.103Z,15.93
2023-02-09T19:20:30.258Z,17.17
2023-02-09T19:22:57.183Z,14.10
2023-02-09T19:25:24.743Z,14.70
2023-02-09T19:27:51.681Z,16.87
2023-02-09T19:30:24.582Z,12.67
2023-02-09T19:32:52.356Z,16.73
2023-02-09T19:35:21.847Z,12.20
2023-02-09T19:37:51.859Z,16.13
2023-02-09T19:40:21.681Z,23.27
2023-02-09T19:42:48.414Z,13.13
2023-02-09T19:45:14.985Z,14.73
2023-02-09T19:47:41.375Z,12.00
2023-02-09T19:50:07.943Z,14.30
2023-02-09T19:52:39.210Z,13.07
2023-02-09T19:55:05.836Z,16.53
2023-02-09T19:57:32.528Z,9.30
2023-02-09T19:59:58.837Z,13.57
2023-02-09T20:02:25.175Z,12.77
2023-02-09T20:04:51.604Z,14.87
2023-02-09T20:07:18.013Z,14.67
2023-02-09T20:09:44.373Z,12.10
2023-02-09T20:12:10.759Z,16.00
2023-02-09T20:14:38.021Z,12.07
2023-02-09T20:17:04.312Z,11.63
2023-02-09T20:19:31.006Z,12.77
2023-02-09T20:21:57.296Z,17.53
2023-02-09T20:24:24.013Z,15.20
2023-02-09T20:26:50.346Z,13.97
2023-02-09T20:29:16.823Z,9.93
2023-02-09T20:31:43.408Z,18.80
2023-02-09T20:34:11.756Z,16.13
2023-02-09T20:36:39.408Z,18.17
2023-02-09T20:39:07.166Z,16.03
2023-02-09T20:41:34.587Z,16.90
2023-02-09T20:44:19.761Z,14.23
2023-02-09T20:46:58.101Z,14.80
2023-02-09T20:49:25.988Z,17.33
2023-02-09T20:51:53.354Z,16.07
2023-02-09T20:54:19.806Z,16.57
2023-02-09T20:56:46.141Z,11.93
2023-02-09T20:59:13.605Z,15.27
2023-02-09T21:01:40.014Z,12.83
2023-02-09T21:04:07.386Z,13.17
2023-02-09T21:06:34.348Z,13.70
2023-02-09T21:09:00.632Z,12.60
2023-02-09T21:11:27.005Z,12.57
2023-02-09T21:13:53.442Z,15.07
2023-02-09T21:16:20.504Z,16.37
2023-02-09T21:18:46.929Z,16.60
2023-02-09T21:21:14.781Z,11.60
2023-02-09T21:23:42.240Z,22.43
2023-02-09T21:26:09.523Z,10.90
2023-02-09T21:28:35.956Z,15.40
2023-02-09T21:31:02.243Z,16.37
2023-02-09T21:33:28.579Z,7.27
2023-02-09T21:35:54.915Z,10.70
2023-02-09T21:38:21.238Z,10.20
2023-02-09T21:40:47.825Z,8.43
2023-02-09T21:43:14.258Z,16.30
2023-02-09T21:45:40.979Z,17.97
2023-02-09T21:48:07.412Z,16.40
2023-02-09T21:50:34.339Z,13.57
2023-02-09T21:53:01.959Z,10.17
2023-02-09T21:55:30.397Z,14.63
2023-02-09T21:57:57.134Z,11.03
2023-02-09T22:00:23.727Z,12.10
2023-02-09T22:02:53.328Z,12.27
2023-02-09T22:05:20.234Z,11.37
2023-02-09T22:07:48.301Z,15.53
2023-02-09T22:10:14.720Z,16.13
2023-02-09T22:12:41.160Z,14.40
2023-02-09T22:15:07.706Z,10.70
2023-02-09T22:17:36.068Z,9.93
2023-02-09T22:20:02.389Z,13.30
2023-02-09T22:22:28.802Z,9.10
2023-02-09T22:24:58.911Z,11.83
2023-02-09T22:27:25.641Z,10.33
2023-02-09T22:29:51.957Z,13.40
2023-02-09T22:32:20.330Z,7.63
2023-02-09T22:34:46.670Z,7.03
2023-02-09T22:37:13.001Z,8.47
2023-02-09T22:39:39.409Z,8.40
2023-02-09T22:42:05.846Z,8.17
2023-02-09T22:44:33.388Z,6.97
2023-02-09T22:46:59.871Z,9.60
2023-02-09T22:49:26.222Z,12.27
2023-02-09T22:51:52.580Z,8.37
2023-02-09T22:54:19.447Z,6.73
2023-02-09T22:56:45.888Z,10.37
2023-02-09T22:59:13.056Z,7.83
2023-02-09T23:01:39.519Z,7.33
2023-02-09T23:04:06.126Z,9.00
2023-02-09T23:06:32.460Z,10.53
2023-02-09T23:09:00.320Z,10.43
2023-02-09T23:11:27.499Z,10.07
2023-02-09T23:14:08.469Z,10.83
2023-02-09T23:16:36.901Z,8.07
2023-02-09T23:19:05.508Z,13.00
2023-02-09T23:21:33.957Z,6.47
2023-02-09T23:24:00.810Z,3.63
2023-02-09T23:26:27.491Z,9.27
2023-02-09T23:28:57.008Z,5.87
2023-02-09T23:31:25.285Z,5.93
2023-02-09T23:33:52.822Z,5.97
2023-02-09T23:36:21.103Z,11.03
2023-02-09T23:38:47.932Z,9.57
2023-02-09T23:41:15.619Z,5.03
2023-02-09T23:43:41.930Z,6.13
2023-02-09T23:46:13.192Z,6.10
2023-02-09T23:48:39.601Z,8.07
2023-02-09T23:51:07.233Z,9.57
2023-02-09T23:53:34.098Z,5.97
2023-02-09T23:56:03.961Z,10.83
2023-02-09T23:58:33.301Z,6.50
